Terminal Aerodrome Forecast
Issued by NWS

Home | Current Version | Previous Version | Text Only | Print | Product List | Glossary On
Versions: 1 2 3 4 5 6 7 8 9 10 11 12 13 14 15 16 17 18
000
FTUS41 KCAR 211120
TAFPQI
TAF
KPQI 211120Z 2112/2212 24004KT P6SM SCT025
     FM211500 30015G23KT P6SM VCSH SCT025 BKN035
     FM212300 28007KT P6SM SCT070
      AMD LTD TO CLD VIS AND WIND=

USA.gov is the U.S. government's official web portal to all federal, state and local government web resources and services.